Time;durP1;ratioP1;P1;durP2;ratioP2;P2;SDS_P1;SDS_P2;PMS_P1;PMS_P2;Temp;Humidity;BMP_temperature;BMP_pressure;BME280_temperature;BME280_humidity;BME280_pressure;Samples;Min_cycle;Max_cycle;Signal;HPM_P1;HPM_P2
2023/04/18 00:01:38;;;;;;;17.40;10.95;;;;;;;4.64;100.00;99376.47;4160701;28;20113;-74
2023/04/18 00:03:39;;;;;;;18.60;11.63;;;;;;;4.57;100.00;99372.56;4163444;28;20041;-74
2023/04/18 00:05:40;;;;;;;19.08;12.07;;;;;;;4.56;100.00;99373.69;4164476;28;20049;-74
2023/04/18 00:07:40;;;;;;;18.75;10.95;;;;;;;4.58;100.00;99368.72;4159862;28;20136;-75
2023/04/18 00:09:41;;;;;;;19.77;11.48;;;;;;;4.57;100.00;99369.84;4159896;28;20038;-75
2023/04/18 00:11:42;;;;;;;19.58;11.65;;;;;;;4.59;100.00;99373.06;4160755;28;20111;-75
2023/04/18 00:13:43;;;;;;;19.92;12.40;;;;;;;4.56;100.00;99369.03;4159941;28;20046;-75
2023/04/18 00:15:45;;;;;;;20.92;11.50;;;;;;;4.53;100.00;99368.84;4161442;28;20038;-75
2023/04/18 00:17:46;;;;;;;17.23;11.15;;;;;;;4.56;100.00;99368.22;4160446;28;20034;-75
2023/04/18 00:19:47;;;;;;;19.48;11.35;;;;;;;4.55;100.00;99369.31;4161206;28;20099;-74
2023/04/18 00:21:48;;;;;;;18.23;11.07;;;;;;;4.57;100.00;99356.13;4160028;28;20049;-75
2023/04/18 00:23:48;;;;;;;19.23;11.60;;;;;;;4.53;100.00;99361.41;4159506;28;20038;-74
2023/04/18 00:25:49;;;;;;;17.75;11.63;;;;;;;4.55;100.00;99369.31;4162222;28;20128;-75
2023/04/18 00:27:49;;;;;;;17.90;10.93;;;;;;;4.53;100.00;99366.91;4159141;28;20081;-74
2023/04/18 00:29:49;;;;;;;18.73;11.55;;;;;;;4.53;100.00;99374.31;4161371;28;20068;-74
2023/04/18 00:31:50;;;;;;;20.33;11.88;;;;;;;4.53;100.00;99361.41;4164190;28;20055;-74
2023/04/18 00:33:50;;;;;;;18.38;10.27;;;;;;;4.55;100.00;99372.06;4162180;28;20091;-75
2023/04/18 00:35:51;;;;;;;18.27;11.45;;;;;;;4.56;100.00;99362.75;4161583;28;20389;-75
2023/04/18 00:37:51;;;;;;;18.33;11.10;;;;;;;4.58;100.00;99355.81;4160251;28;20324;-75
2023/04/18 00:39:52;;;;;;;18.35;11.52;;;;;;;4.59;100.00;99368.38;4160762;28;20033;-75
2023/04/18 00:41:53;;;;;;;19.13;10.95;;;;;;;4.61;100.00;99355.16;4159153;28;20064;-75
2023/04/18 00:43:53;;;;;;;16.50;10.57;;;;;;;4.61;100.00;99365.31;4159579;28;20045;-74
2023/04/18 00:45:55;;;;;;;17.50;11.15;;;;;;;4.63;100.00;99363.06;4161564;28;20462;-75
2023/04/18 00:47:56;;;;;;;19.20;11.25;;;;;;;4.62;100.00;99361.44;4159267;28;20050;-74
2023/04/18 00:49:57;;;;;;;17.60;11.60;;;;;;;4.57;100.00;99364.34;4160806;28;20044;-74
2023/04/18 00:51:58;;;;;;;16.10;9.85;;;;;;;4.57;100.00;99364.34;4160560;28;20308;-74
2023/04/18 00:53:58;;;;;;;18.45;10.93;;;;;;;4.58;100.00;99365.97;4160896;28;20072;-74
2023/04/18 00:55:59;;;;;;;17.02;10.65;;;;;;;4.61;100.00;99359.84;4158770;28;20068;-75
2023/04/18 00:57:59;;;;;;;18.00;11.20;;;;;;;4.59;100.00;99360.16;4160057;28;20049;-74
2023/04/18 01:00:00;;;;;;;17.50;9.95;;;;;;;4.56;100.00;99354.53;4160160;28;20049;-74
2023/04/18 01:02:02;;;;;;;16.50;9.70;;;;;;;4.61;100.00;99362.59;4163140;28;20120;-74
2023/04/18 01:04:03;;;;;;;15.27;9.65;;;;;;;4.62;100.00;99354.03;4158417;28;20049;-74
2023/04/18 01:06:03;;;;;;;17.88;10.05;;;;;;;4.61;100.00;99352.44;4164893;28;20115;-74
2023/04/18 01:08:03;;;;;;;14.45;9.90;;;;;;;4.62;100.00;99351.28;4160175;28;20021;-74
2023/04/18 01:10:04;;;;;;;17.88;10.88;;;;;;;4.62;100.00;99347.75;4142530;28;20041;-74
2023/04/18 01:12:05;;;;;;;15.50;9.70;;;;;;;4.63;100.00;99349.34;4159857;28;20036;-75
2023/04/18 01:14:06;;;;;;;15.68;9.95;;;;;;;4.63;100.00;99346.63;4159074;28;20025;-74
2023/04/18 01:16:07;;;;;;;16.70;10.13;;;;;;;4.60;100.00;99352.75;4159634;28;20057;-75
2023/04/18 01:18:08;;;;;;;15.18;9.70;;;;;;;4.61;100.00;99357.91;4159820;28;20029;-74
2023/04/18 01:20:09;;;;;;;15.85;9.50;;;;;;;4.61;100.00;99357.91;4159419;28;20036;-74
2023/04/18 01:22:12;;;;;;;16.30;10.30;;;;;;;4.60;100.00;99348.06;4159593;28;20029;-74
2023/04/18 01:24:14;;;;;;;15.27;9.73;;;;;;;4.60;100.00;99345.31;4158759;28;20040;-74
2023/04/18 01:26:15;;;;;;;17.33;9.27;;;;;;;4.60;100.00;99350.00;4164700;28;20104;-74
2023/04/18 01:28:15;;;;;;;13.82;8.77;;;;;;;4.61;100.00;99343.41;4160252;28;20065;-74
2023/04/18 01:30:16;;;;;;;15.95;9.55;;;;;;;4.59;100.00;99340.97;4160335;28;20548;-74
2023/04/18 01:32:18;;;;;;;18.35;10.13;;;;;;;4.59;100.00;99345.66;4160472;28;20420;-74
2023/04/18 01:34:19;;;;;;;16.77;10.23;;;;;;;4.59;100.00;99337.44;4158471;28;20029;-74
2023/04/18 01:36:19;;;;;;;17.73;9.30;;;;;;;4.60;100.00;99339.03;4164642;28;20486;-74
2023/04/18 01:38:19;;;;;;;15.88;10.07;;;;;;;4.59;100.00;99331.94;4159163;28;20065;-75
2023/04/18 01:40:20;;;;;;;15.30;10.07;;;;;;;4.62;100.00;99336.78;4160047;28;20030;-74
2023/04/18 01:42:20;;;;;;;14.63;9.45;;;;;;;4.61;100.00;99327.75;4159059;28;20124;-74
2023/04/18 01:44:20;;;;;;;16.92;10.55;;;;;;;4.62;100.00;99334.84;4158933;28;20049;-75
2023/04/18 01:46:21;;;;;;;17.48;10.80;;;;;;;4.60;100.00;99326.16;4166631;28;20163;-74
2023/04/18 01:48:21;;;;;;;15.60;10.05;;;;;;;4.61;100.00;99329.69;4159172;28;20033;-74
2023/04/18 01:50:21;;;;;;;17.85;10.30;;;;;;;4.64;100.00;99329.06;4159805;28;20033;-74
2023/04/18 01:52:22;;;;;;;16.45;10.23;;;;;;;4.61;100.00;99325.00;4159344;28;20053;-74
2023/04/18 01:54:22;;;;;;;19.83;10.75;;;;;;;4.64;100.00;99329.06;4158764;28;20069;-75
2023/04/18 01:56:22;;;;;;;18.52;11.20;;;;;;;4.61;100.00;99326.94;4159750;28;20045;-74
2023/04/18 01:58:24;;;;;;;20.23;11.95;;;;;;;4.62;100.00;99323.06;4161314;28;20465;-74
2023/04/18 02:00:24;;;;;;;20.45;12.05;;;;;;;4.62;100.00;99321.16;4167021;28;20048;-74
2023/04/18 02:02:24;;;;;;;18.98;11.65;;;;;;;4.60;100.00;99328.88;4164577;28;20046;-74
2023/04/18 02:04:25;;;;;;;16.77;11.35;;;;;;;4.62;100.00;99331.31;4162957;28;20041;-75
2023/04/18 02:06:25;;;;;;;18.40;12.15;;;;;;;4.63;100.00;99330.16;4162757;28;20056;-75
2023/04/18 02:08:26;;;;;;;18.58;12.10;;;;;;;4.62;100.00;99323.88;4162305;28;20041;-74
2023/04/18 02:10:26;;;;;;;18.80;11.95;;;;;;;4.61;100.00;99327.75;4161870;28;20124;-74
2023/04/18 02:12:26;;;;;;;19.40;12.38;;;;;;;4.62;100.00;99323.06;4162923;28;20128;-74
2023/04/18 02:14:32;;;;;;;18.98;11.90;;;;;;;4.61;100.00;99318.72;4161947;28;20073;-74
2023/04/18 02:16:33;;;;;;;19.92;12.15;;;;;;;4.62;100.00;99318.41;4161820;28;20308;-75
2023/04/18 02:18:34;;;;;;;20.90;12.45;;;;;;;4.64;100.00;99332.63;4163517;28;20493;-74
2023/04/18 02:20:35;;;;;;;21.85;13.48;;;;;;;4.64;100.00;99327.13;4164536;28;20041;-74
2023/04/18 02:22:37;;;;;;;23.85;12.80;;;;;;;4.62;100.00;99329.38;4165465;28;20036;-75
2023/04/18 02:24:37;;;;;;;21.08;12.80;;;;;;;4.65;100.00;99333.44;4163602;28;20037;-74
2023/04/18 02:26:37;;;;;;;18.00;11.43;;;;;;;4.67;100.00;99328.44;4162678;28;20369;-74
2023/04/18 02:28:37;;;;;;;23.50;12.88;;;;;;;4.67;100.00;99328.44;4164712;28;20131;-75
2023/04/18 02:30:38;;;;;;;21.55;12.73;;;;;;;4.67;100.00;99331.97;4161807;28;20046;-74
2023/04/18 02:32:38;;;;;;;22.73;13.27;;;;;;;4.67;100.00;99328.44;4162307;28;20045;-75
2023/04/18 02:34:38;;;;;;;23.50;12.63;;;;;;;4.70;100.00;99325.84;4161879;28;20041;-74
2023/04/18 02:36:39;;;;;;;22.88;13.88;;;;;;;4.72;100.00;99326.34;4160625;28;20033;-74
2023/04/18 02:38:39;;;;;;;20.00;12.98;;;;;;;4.69;100.00;99326.16;4165359;28;20081;-74
2023/04/18 02:40:39;;;;;;;23.27;14.15;;;;;;;4.69;100.00;99324.22;4164531;28;20422;-75
2023/04/18 02:42:40;;;;;;;22.23;13.05;;;;;;;4.70;100.00;99327.78;4163477;28;20041;-74
2023/04/18 02:44:40;;;;;;;21.65;13.32;;;;;;;4.73;100.00;99325.22;4162254;28;20175;-74
2023/04/18 02:46:40;;;;;;;19.90;12.05;;;;;;;4.73;100.00;99330.72;4162071;28;20041;-74
2023/04/18 02:48:41;;;;;;;24.70;14.80;;;;;;;4.73;100.00;99330.72;4161686;28;20649;-74
2023/04/18 02:50:41;;;;;;;21.88;13.75;;;;;;;4.75;100.00;99330.38;4166115;28;20080;-74
2023/04/18 02:52:42;;;;;;;23.20;14.23;;;;;;;4.71;100.00;99326.66;4165631;28;20478;-75
2023/04/18 02:54:43;;;;;;;25.80;15.05;;;;;;;4.70;100.00;99323.09;4162447;28;20103;-74
2023/04/18 02:56:43;;;;;;;27.90;14.68;;;;;;;4.71;100.00;99321.97;4161767;28;20491;-74
2023/04/18 02:58:43;;;;;;;24.42;14.57;;;;;;;4.74;100.00;99328.78;4162977;28;20069;-74
2023/04/18 03:00:44;;;;;;;27.83;14.77;;;;;;;4.74;100.00;99329.56;4164070;28;20116;-74
2023/04/18 03:02:44;;;;;;;26.33;14.77;;;;;;;4.71;100.00;99330.19;4163908;28;20055;-74
2023/04/18 03:04:45;;;;;;;24.75;14.60;;;;;;;4.74;100.00;99326.03;4161507;28;20061;-74
2023/04/18 03:06:46;;;;;;;23.20;14.82;;;;;;;4.74;100.00;99332.31;4162299;28;20433;-75
2023/04/18 03:08:47;;;;;;;29.20;15.77;;;;;;;4.73;100.00;99324.41;4160938;28;20041;-74
2023/04/18 03:10:47;;;;;;;25.80;14.93;;;;;;;4.74;100.00;99324.09;4159391;28;20041;-75
2023/04/18 03:12:48;;;;;;;23.90;14.00;;;;;;;4.75;100.00;99322.97;4164600;28;20183;-75
2023/04/18 03:14:48;;;;;;;25.45;14.43;;;;;;;4.76;100.00;99323.78;4162048;28;20064;-75
2023/04/18 03:16:48;;;;;;;25.08;14.48;;;;;;;4.76;100.00;99323.78;4162989;28;20045;-74
2023/04/18 03:18:49;;;;;;;25.63;14.73;;;;;;;4.77;100.00;99325.38;4161810;28;20124;-74
2023/04/18 03:20:49;;;;;;;28.30;15.65;;;;;;;4.76;100.00;99332.00;4163412;28;20088;-74
2023/04/18 03:22:49;;;;;;;32.63;15.32;;;;;;;4.75;100.00;99330.38;4162332;28;20034;-74
2023/04/18 03:24:50;;;;;;;35.58;16.40;;;;;;;4.76;100.00;99337.47;4164905;28;20555;-74
2023/04/18 03:26:50;;;;;;;30.00;15.43;;;;;;;4.74;100.00;99326.03;4165088;28;20064;-75
2023/04/18 03:28:50;;;;;;;31.08;15.75;;;;;;;4.74;100.00;99332.31;4164184;28;20053;-74
2023/04/18 03:30:51;;;;;;;30.33;15.60;;;;;;;4.75;100.00;99333.94;4164996;28;20050;-74
2023/04/18 03:32:52;;;;;;;32.03;16.15;;;;;;;4.77;100.00;99331.66;4164374;28;20195;-75
2023/04/18 03:34:52;;;;;;;29.48;16.00;;;;;;;4.77;100.00;99339.91;4159472;28;20059;-75
2023/04/18 03:36:53;;;;;;;31.17;15.40;;;;;;;4.77;100.00;99330.88;4159864;28;20555;-74
2023/04/18 03:38:53;;;;;;;28.15;15.30;;;;;;;4.78;100.00;99340.69;4159869;28;20049;-75
2023/04/18 03:40:54;;;;;;;30.95;15.90;;;;;;;4.77;100.00;99330.88;4164476;28;20116;-75
2023/04/18 03:42:54;;;;;;;34.38;18.67;;;;;;;4.77;100.00;99336.34;4160218;28;20057;-74
2023/04/18 03:44:54;;;;;;;29.52;15.20;;;;;;;4.77;100.00;99334.41;4164166;28;20045;-74
2023/04/18 03:46:56;;;;;;;29.17;15.60;;;;;;;4.79;100.00;99337.63;4166183;28;20390;-74
2023/04/18 03:48:56;;;;;;;30.27;17.63;;;;;;;4.79;100.00;99337.63;4162035;28;20533;-74
2023/04/18 03:50:56;;;;;;;29.73;16.02;;;;;;;4.81;100.00;99340.09;4162325;28;20052;-75
2023/04/18 03:52:57;;;;;;;28.70;15.65;;;;;;;4.80;100.00;99333.00;4164330;28;20041;-75
2023/04/18 03:54:57;;;;;;;30.60;16.38;;;;;;;4.82;100.00;99344.44;4160965;28;20135;-74
2023/04/18 03:56:58;;;;;;;24.33;13.75;;;;;;;4.79;100.00;99342.31;4161438;28;20049;-75
2023/04/18 03:58:58;;;;;;;26.15;14.23;;;;;;;4.77;100.00;99333.59;4165377;28;20068;-75
2023/04/18 04:00:59;;;;;;;22.00;12.98;;;;;;;4.77;100.00;99339.91;4162420;28;20358;-75
2023/04/18 04:03:00;;;;;;;18.98;11.25;;;;;;;4.76;100.00;99346.50;4164425;28;20092;-74
2023/04/18 04:05:01;;;;;;;20.70;9.98;;;;;;;4.75;100.00;99341.34;4162091;28;20087;-75
2023/04/18 04:07:02;;;;;;;16.85;9.73;;;;;;;4.73;100.00;99349.91;4161713;28;20040;-75
2023/04/18 04:09:02;;;;;;;15.25;8.27;;;;;;;4.75;100.00;99342.16;4162802;28;20097;-75
2023/04/18 04:11:02;;;;;;;14.88;7.80;;;;;;;4.77;100.00;99344.56;4161475;28;20123;-74
2023/04/18 04:13:03;;;;;;;9.75;6.05;;;;;;;4.76;100.00;99341.03;4162728;28;20656;-75
2023/04/18 04:15:04;;;;;;;13.50;7.10;;;;;;;4.72;100.00;99345.53;4165023;28;20053;-75
2023/04/18 04:17:04;;;;;;;11.27;6.70;;;;;;;4.74;100.00;99345.22;4162106;28;20609;-75
2023/04/18 04:19:05;;;;;;;10.88;6.53;;;;;;;4.72;100.00;99339.25;4161348;28;20049;-74
2023/04/18 04:21:05;;;;;;;11.27;6.82;;;;;;;4.71;100.00;99346.66;4162708;28;20492;-75
2023/04/18 04:23:05;;;;;;;12.57;6.53;;;;;;;4.71;100.00;99349.38;4161757;28;20040;-75
2023/04/18 04:25:07;;;;;;;11.20;6.47;;;;;;;4.72;100.00;99352.97;4161306;28;20033;-75
2023/04/18 04:27:07;;;;;;;10.55;6.57;;;;;;;4.76;100.00;99359.41;4163551;28;20029;-74
2023/04/18 04:29:09;;;;;;;11.80;6.78;;;;;;;4.75;100.00;99360.53;4161499;28;20052;-74
2023/04/18 04:31:10;;;;;;;11.35;5.90;;;;;;;4.76;100.00;99362.97;4163124;28;20048;-75
2023/04/18 04:33:10;;;;;;;9.82;5.65;;;;;;;4.74;100.00;99353.44;4162559;28;20425;-75
2023/04/18 04:35:10;;;;;;;12.07;7.05;;;;;;;4.75;100.00;99353.13;4163124;28;20446;-75
2023/04/18 04:37:17;;;;;;;11.52;6.22;;;;;;;4.74;100.00;99364.41;4162147;28;20060;-74
2023/04/18 04:39:17;;;;;;;9.43;6.22;;;;;;;4.76;100.00;99365.69;4162685;28;20065;-74
2023/04/18 04:41:18;;;;;;;8.35;5.85;;;;;;;4.76;100.00;99368.44;4163029;28;20052;-75
2023/04/18 04:43:19;;;;;;;11.20;6.63;;;;;;;4.73;100.00;99363.59;4162806;28;20080;-74
2023/04/18 04:45:19;;;;;;;11.02;6.22;;;;;;;4.75;100.00;99364.09;4162276;28;20103;-75
2023/04/18 04:47:20;;;;;;;12.20;6.45;;;;;;;4.77;100.00;99372.78;4160847;28;20046;-74
2023/04/18 04:49:20;;;;;;;10.23;6.88;;;;;;;4.76;100.00;99370.38;4161953;28;20053;-75
2023/04/18 04:51:21;;;;;;;10.25;6.28;;;;;;;4.77;100.00;99372.78;4161142;28;20049;-75
2023/04/18 04:53:22;;;;;;;9.82;6.55;;;;;;;4.78;100.00;99362.63;4162529;28;20125;-75
2023/04/18 04:55:23;;;;;;;11.27;6.43;;;;;;;4.81;100.00;99362.03;4164197;28;20037;-74
2023/04/18 04:57:23;;;;;;;10.60;6.45;;;;;;;4.79;100.00;99373.28;4162843;28;20032;-75
2023/04/18 04:59:24;;;;;;;12.15;6.15;;;;;;;4.82;100.00;99371.84;4159826;28;20106;-75
2023/04/18 05:01:25;;;;;;;10.32;6.40;;;;;;;4.83;100.00;99370.72;4144990;28;20123;-74
2023/04/18 05:03:25;;;;;;;11.95;7.07;;;;;;;4.83;100.00;99369.91;4163705;28;20041;-75
2023/04/18 05:05:25;;;;;;;12.82;7.65;;;;;;;4.83;100.00;99373.47;4162306;28;20082;-75
2023/04/18 05:07:26;;;;;;;14.73;7.35;;;;;;;4.83;100.00;99376.22;4164162;28;20040;-74
2023/04/18 05:09:26;;;;;;;12.13;6.85;;;;;;;4.84;100.00;99374.28;4161134;28;20187;-75
2023/04/18 05:11:26;;;;;;;13.95;7.95;;;;;;;4.85;100.00;99386.84;4160970;28;20048;-75
2023/04/18 05:13:27;;;;;;;17.38;7.90;;;;;;;4.88;100.00;99377.97;4161650;28;20033;-75
2023/04/18 05:15:27;;;;;;;13.35;7.57;;;;;;;4.91;100.00;99377.38;4161372;28;20053;-74
2023/04/18 05:17:27;;;;;;;11.95;7.78;;;;;;;4.89;100.00;99374.94;4163134;28;20382;-75
2023/04/18 05:19:28;;;;;;;14.82;8.05;;;;;;;4.92;100.00;99384.47;4162543;28;20704;-74
2023/04/18 05:21:28;;;;;;;15.02;8.38;;;;;;;4.92;100.00;99378.97;4161412;28;20490;-75
2023/04/18 05:23:29;;;;;;;13.95;7.55;;;;;;;4.92;100.00;99384.47;4164197;28;20033;-74
2023/04/18 05:25:30;;;;;;;17.45;8.85;;;;;;;4.91;100.00;99377.38;4160967;28;20128;-75
2023/04/18 05:27:30;;;;;;;12.48;7.15;;;;;;;4.94;100.00;99377.53;4166126;28;20061;-75
2023/04/18 05:29:31;;;;;;;12.00;7.38;;;;;;;4.94;100.00;99380.25;4159661;28;20518;-75
2023/04/18 05:31:31;;;;;;;14.30;8.32;;;;;;;4.99;100.00;99388.34;4157414;28;20041;-75
2023/04/18 05:33:31;;;;;;;15.15;7.97;;;;;;;5.01;100.00;99382.53;4159287;28;20413;-75
2023/04/18 05:35:32;;;;;;;17.50;8.52;;;;;;;5.01;100.00;99386.09;4168301;28;20386;-75
2023/04/18 05:37:32;;;;;;;13.82;8.10;;;;;;;5.03;100.00;99386.56;4160972;28;20045;-74
2023/04/18 05:39:33;;;;;;;16.67;8.82;;;;;;;5.04;100.00;99390.13;4162861;28;20499;-75
2023/04/18 05:41:33;;;;;;;15.88;8.25;;;;;;;5.08;100.00;99385.63;4162925;28;20037;-75
2023/04/18 05:43:34;;;;;;;13.05;8.05;;;;;;;5.10;100.00;99385.31;4161666;28;20041;-75
2023/04/18 05:45:34;;;;;;;18.13;8.27;;;;;;;5.10;100.00;99388.84;4161858;28;20489;-75
2023/04/18 05:47:34;;;;;;;17.27;8.77;;;;;;;5.10;100.00;99380.63;4164568;28;20115;-75
2023/04/18 05:49:35;;;;;;;12.23;7.32;;;;;;;5.14;100.00;99387.09;4166690;28;20129;-75
2023/04/18 05:51:35;;;;;;;14.85;8.35;;;;;;;5.15;100.00;99394.19;4161419;28;20491;-74
2023/04/18 05:53:35;;;;;;;14.52;8.65;;;;;;;5.18;100.00;99390.00;4161917;28;20459;-75
2023/04/18 05:55:36;;;;;;;12.60;7.88;;;;;;;5.16;100.00;99387.59;4162374;28;20876;-75
2023/04/18 05:57:36;;;;;;;13.85;7.30;;;;;;;5.15;100.00;99388.72;4163367;28;20100;-75
2023/04/18 05:59:36;;;;;;;15.25;8.38;;;;;;;5.19;100.00;99397.91;4162724;28;20453;-75
2023/04/18 06:01:37;;;;;;;16.48;8.13;;;;;;;5.18;100.00;99396.28;4164964;28;20496;-75
2023/04/18 06:03:37;;;;;;;16.08;8.02;;;;;;;5.20;100.00;99393.22;4161530;28;20485;-75
2023/04/18 06:05:39;;;;;;;15.38;8.68;;;;;;;5.22;100.00;99400.03;4163436;28;20045;-75
2023/04/18 06:07:40;;;;;;;16.05;8.50;;;;;;;5.19;100.00;99397.09;4164591;28;20044;-75
2023/04/18 06:09:40;;;;;;;15.50;8.10;;;;;;;5.24;100.00;99400.50;4163967;28;20045;-75
2023/04/18 06:11:40;;;;;;;17.83;9.27;;;;;;;5.26;100.00;99403.72;4164536;28;20389;-75
2023/04/18 06:13:41;;;;;;;17.33;8.60;;;;;;;5.27;100.00;99410.84;4163807;28;20068;-75
2023/04/18 06:15:41;;;;;;;16.00;7.97;;;;;;;5.27;100.00;99401.78;4164457;28;20045;-75
2023/04/18 06:17:43;;;;;;;13.65;8.13;;;;;;;5.28;100.00;99419.88;4165198;28;20049;-75
2023/04/18 06:19:43;;;;;;;12.32;7.72;;;;;;;5.28;100.00;99415.19;4163381;28;20041;-75
2023/04/18 06:21:44;;;;;;;15.18;8.73;;;;;;;5.26;100.00;99422.13;4163475;28;20103;-75
2023/04/18 06:23:44;;;;;;;16.38;7.82;;;;;;;5.27;100.00;99418.25;4160799;28;20108;-76
2023/04/18 06:25:45;;;;;;;18.15;9.27;;;;;;;5.25;100.00;99415.03;4161819;28;20060;-74
2023/04/18 06:27:45;;;;;;;14.38;8.05;;;;;;;5.28;100.00;99417.94;4163804;28;20037;-75
2023/04/18 06:29:45;;;;;;;14.68;8.00;;;;;;;5.30;100.00;99423.13;4162195;28;20391;-75
2023/04/18 06:31:47;;;;;;;13.30;8.02;;;;;;;5.32;100.00;99431.84;4163845;28;20038;-75
2023/04/18 06:33:47;;;;;;;14.15;8.30;;;;;;;5.32;100.00;99423.59;4163650;28;20422;-75
2023/04/18 06:35:47;;;;;;;17.45;8.88;;;;;;;5.32;100.00;99429.91;4164803;28;20100;-74
2023/04/18 06:37:48;;;;;;;14.60;8.13;;;;;;;5.34;100.00;99430.38;4166493;28;20091;-75
2023/04/18 06:39:48;;;;;;;16.27;8.15;;;;;;;5.36;100.00;99425.38;4161852;28;20453;-74
2023/04/18 06:41:48;;;;;;;19.83;8.98;;;;;;;5.38;100.00;99422.34;4163073;28;20041;-75
2023/04/18 06:43:49;;;;;;;15.70;8.38;;;;;;;5.42;100.00;99431.53;4164173;28;20045;-75
2023/04/18 06:45:49;;;;;;;19.25;9.80;;;;;;;5.44;100.00;99442.19;4161104;28;20510;-75
2023/04/18 06:47:51;;;;;;;16.58;8.70;;;;;;;5.46;100.00;99434.41;4162213;28;20124;-75
2023/04/18 06:49:51;;;;;;;18.17;9.15;;;;;;;5.49;100.00;99439.28;4162325;28;20206;-75
2023/04/18 06:51:51;;;;;;;24.20;15.25;;;;;;;5.50;100.00;99441.72;4161095;28;20525;-75
2023/04/18 06:53:52;;;;;;;17.42;9.90;;;;;;;5.52;100.00;99433.97;4160029;28;20049;-75
2023/04/18 06:55:52;;;;;;;21.83;10.82;;;;;;;5.54;100.00;99436.38;4162895;28;20049;-75
2023/04/18 06:57:53;;;;;;;19.42;11.52;;;;;;;5.56;100.00;99445.13;4158502;28;20087;-75
2023/04/18 06:59:53;;;;;;;25.08;13.00;;;;;;;5.56;100.00;99434.13;4162150;28;20048;-75
2023/04/18 07:01:53;;;;;;;19.92;11.60;;;;;;;5.60;100.00;99435.09;4161638;28;20140;-75
2023/04/18 07:03:54;;;;;;;25.90;12.65;;;;;;;5.63;100.00;99446.25;4161299;28;20135;-75
2023/04/18 07:05:54;;;;;;;24.95;12.23;;;;;;;5.61;100.00;99443.00;4162359;28;20127;-75
2023/04/18 07:07:55;;;;;;;31.33;15.93;;;;;;;5.64;100.00;99436.09;4164825;28;20050;-75
2023/04/18 07:09:55;;;;;;;33.63;17.58;;;;;;;5.63;100.00;99443.50;4161893;28;20045;-75
2023/04/18 07:11:55;;;;;;;39.40;19.13;;;;;;;5.65;100.00;99448.69;4161901;28;20165;-75
2023/04/18 07:13:56;;;;;;;40.55;19.77;;;;;;;5.60;100.00;99441.38;4160222;28;20155;-75
2023/04/18 07:15:56;;;;;;;40.30;19.58;;;;;;;5.63;100.00;99449.00;4160941;28;20076;-75
2023/04/18 07:17:56;;;;;;;45.88;21.85;;;;;;;5.64;100.00;99458.84;4159671;28;20430;-75
2023/04/18 07:19:57;;;;;;;46.78;21.90;;;;;;;5.63;100.00;99453.69;4160883;28;20048;-75
2023/04/18 07:21:57;;;;;;;46.72;23.85;;;;;;;5.62;100.00;99449.31;4160984;28;20041;-75
2023/04/18 07:23:58;;;;;;;41.35;21.88;;;;;;;5.60;100.00;99441.38;4160723;28;20037;-75
2023/04/18 07:26:00;;;;;;;48.88;23.30;;;;;;;5.68;100.00;99456.25;4159564;28;20048;-75
2023/04/18 07:28:01;;;;;;;;;;;;;;;5.74;100.00;99449.50;4161415;28;20076;-75
2023/04/18 07:30:05;;;;;;;46.40;21.60;;;;;;;5.76;100.00;99457.41;4160708;28;19925;-75
2023/04/18 07:32:05;;;;;;;43.92;22.08;;;;;;;5.79;100.00;99463.06;4157483;28;20661;-75
2023/04/18 07:34:07;;;;;;;43.13;21.70;;;;;;;5.80;100.00;99461.13;4159003;28;20079;-75
2023/04/18 07:36:08;;;;;;;41.33;20.35;;;;;;;5.85;100.00;99467.25;4166481;28;20070;-75
2023/04/18 07:38:10;;;;;;;41.25;21.00;;;;;;;5.81;100.00;99460.81;4162310;28;20499;-75
2023/04/18 07:40:11;;;;;;;42.88;22.42;;;;;;;5.82;100.00;99470.66;4161582;28;20036;-75
2023/04/18 07:42:11;;;;;;;44.05;21.67;;;;;;;5.87;100.00;99473.22;4163757;28;20472;-75
2023/04/18 07:44:11;;;;;;;39.35;21.17;;;;;;;5.87;100.00;99469.66;4162764;28;20029;-75
2023/04/18 07:46:12;;;;;;;40.42;20.27;;;;;;;5.86;100.00;99465.31;4158507;28;20091;-75
2023/04/18 07:48:13;;;;;;;38.38;20.38;;;;;;;5.89;100.00;99470.97;4158702;28;20091;-75
2023/04/18 07:50:13;;;;;;;42.70;22.08;;;;;;;5.89;100.00;99481.16;4158149;28;20618;-75
2023/04/18 07:52:14;;;;;;;39.55;21.77;;;;;;;5.85;100.00;99482.91;4162819;28;20325;-75
2023/04/18 07:54:14;;;;;;;43.30;21.38;;;;;;;5.86;100.00;99481.78;4159258;28;20021;-75
2023/04/18 07:56:15;;;;;;;36.53;18.88;;;;;;;5.85;100.00;99474.69;4158740;28;20087;-75
2023/04/18 07:58:16;;;;;;;38.40;20.05;;;;;;;5.85;100.00;99477.44;4155565;28;20033;-75
2023/04/18 08:00:17;;;;;;;35.00;19.52;;;;;;;5.88;100.00;99476.81;4157616;28;20041;-75
2023/04/18 08:02:17;;;;;;;36.45;19.63;;;;;;;5.90;100.00;99477.28;4158839;28;20065;-74
2023/04/18 08:04:18;;;;;;;39.95;22.00;;;;;;;5.90;100.00;99488.28;4157240;28;20028;-75
2023/04/18 08:06:18;;;;;;;39.45;21.42;;;;;;;5.88;100.00;99483.09;4160677;28;20875;-75
2023/04/18 08:08:18;;;;;;;42.25;23.55;;;;;;;5.88;100.00;99485.03;4165011;28;20037;-75
2023/04/18 08:10:19;;;;;;;41.72;23.20;;;;;;;5.88;100.00;99491.34;4160342;28;20125;-75
2023/04/18 08:12:19;;;;;;;40.17;23.58;;;;;;;5.88;100.00;99485.84;4158822;28;20121;-75
2023/04/18 08:14:19;;;;;;;45.63;23.27;;;;;;;5.88;100.00;99485.03;4162634;28;20414;-74
2023/04/18 08:16:20;;;;;;;43.50;23.23;;;;;;;5.94;100.00;99488.44;4160595;28;20108;-75
2023/04/18 08:18:21;;;;;;;41.20;23.70;;;;;;;6.00;100.00;99487.97;4157849;28;20079;-74
2023/04/18 08:20:22;;;;;;;46.10;23.85;;;;;;;6.06;100.00;99488.63;4160282;28;20044;-75
2023/04/18 08:22:22;;;;;;;38.90;20.80;;;;;;;6.11;100.00;99489.25;4158029;28;20065;-75
2023/04/18 08:24:23;;;;;;;30.35;18.92;;;;;;;6.12;100.00;99485.41;4156604;28;20434;-75
2023/04/18 08:26:23;;;;;;;33.08;18.55;;;;;;;6.13;100.00;99487.00;4159992;28;20370;-75
2023/04/18 08:28:23;;;;;;;29.85;17.30;;;;;;;6.15;100.00;99493.00;4160636;28;20075;-74
2023/04/18 08:30:25;;;;;;;30.83;17.75;;;;;;;6.16;100.00;99485.56;4160610;28;20076;-74
2023/04/18 08:32:25;;;;;;;30.40;17.65;;;;;;;6.11;100.00;99494.75;4158507;28;20037;-75
2023/04/18 08:34:27;;;;;;;26.52;17.55;;;;;;;6.13;100.00;99488.97;4159342;28;20037;-74
2023/04/18 08:36:28;;;;;;;31.50;18.38;;;;;;;6.15;100.00;99501.22;4160298;28;20472;-75
2023/04/18 08:38:28;;;;;;;31.77;18.30;;;;;;;6.21;100.00;99501.88;4159878;28;20068;-75
2023/04/18 08:40:29;;;;;;;38.13;21.08;;;;;;;6.18;100.00;99497.03;4159917;28;20049;-74
2023/04/18 08:42:30;;;;;;;40.65;22.90;;;;;;;6.15;100.00;99495.72;4159621;28;20060;-75
2023/04/18 08:44:31;;;;;;;39.92;22.75;;;;;;;6.14;100.00;99505.13;4160095;28;20026;-74
2023/04/18 08:46:34;;;;;;;41.90;23.67;;;;;;;6.16;100.00;99502.03;4158641;28;20026;-74
2023/04/18 08:48:35;;;;;;;39.92;23.77;;;;;;;6.13;100.00;99497.19;4159422;28;20053;-75
2023/04/18 08:50:35;;;;;;;40.97;23.15;;;;;;;6.14;100.00;99498.81;4160690;28;20867;-75
2023/04/18 08:52:38;;;;;;;40.08;23.50;;;;;;;6.12;100.00;99510.13;4160556;28;20049;-74
2023/04/18 08:54:43;;;;;;;;;;;;;;;6.13;100.00;99508.19;4158681;28;20047;-74
2023/04/18 08:56:44;;;;;;;35.83;21.83;;;;;;;6.14;100.00;99516.09;4161087;28;19917;-75
2023/04/18 08:58:44;;;;;;;40.17;23.27;;;;;;;6.15;100.00;99505.91;4159613;28;20048;-74
2023/04/18 09:00:49;;;;;;;42.75;23.00;;;;;;;6.20;100.00;99506.53;4158256;28;20042;-75
2023/04/18 09:02:55;;;;;;;37.17;22.13;;;;;;;6.27;100.00;99511.56;4158305;28;20136;-74
2023/04/18 09:04:55;;;;;;;39.90;22.85;;;;;;;6.31;100.00;99514.47;4159292;28;20041;-75
2023/04/18 09:06:55;;;;;;;39.40;21.73;;;;;;;6.31;100.00;99518.03;4158629;28;20445;-75
2023/04/18 09:09:02;;;;;;;35.63;20.95;;;;;;;6.35;100.00;99516.25;4158843;28;20083;-74
2023/04/18 09:11:24;;;;;;;30.95;18.42;;;;;;;6.36;100.00;99512.34;4158937;28;21717;-75
2023/04/18 09:13:46;;;;;;;31.75;19.40;;;;;;;6.36;100.00;99515.09;4160495;28;20054;-75
2023/04/18 09:15:54;;;;;;;31.80;18.98;;;;;;;6.39;100.00;99521.91;4161369;28;20406;-75
2023/04/18 09:17:57;;;;;;;30.10;18.40;;;;;;;6.35;100.00;99516.25;4157939;28;20045;-75
2023/04/18 09:19:58;;;;;;;30.80;18.67;;;;;;;6.30;100.00;99513.69;4159729;28;20095;-74